createdAt,value
2023-02-16T00:00:43.744Z,78.50
2023-02-16T00:03:15.984Z,78.78
2023-02-16T00:05:43.959Z,80.30
2023-02-16T00:08:11.887Z,82.10
2023-02-16T00:10:39.961Z,82.82
2023-02-16T00:13:43.708Z,84.15
2023-02-16T00:16:15.955Z,70.22
2023-02-16T00:18:43.877Z,61.00
2023-02-16T00:21:11.866Z,80.28
2023-02-16T00:23:39.884Z,80.78
2023-02-16T00:26:13.972Z,72.38
2023-02-16T00:28:42.146Z,78.10
2023-02-16T00:31:19.106Z,76.90
2023-02-16T00:33:47.265Z,76.80
2023-02-16T00:36:15.519Z,70.90
2023-02-16T00:38:43.419Z,83.68
2023-02-16T00:41:40.184Z,73.72
2023-02-16T00:44:15.534Z,78.82
2023-02-16T00:46:43.780Z,74.88
2023-02-16T00:49:16.023Z,71.43
2023-02-16T00:51:43.941Z,78.85
2023-02-16T00:54:11.957Z,78.28
2023-02-16T00:56:40.227Z,88.38
2023-02-16T00:59:10.312Z,76.20
2023-02-16T01:01:38.944Z,80.00
2023-02-16T01:04:07.779Z,82.88
2023-02-16T01:06:54.241Z,86.50
2023-02-16T01:09:40.714Z,92.93
2023-02-16T01:12:14.847Z,95.68
2023-02-16T01:14:43.946Z,104.03
2023-02-16T01:17:12.024Z,89.38
2023-02-16T01:19:39.993Z,94.60
2023-02-16T01:22:08.021Z,85.10
2023-02-16T01:24:36.022Z,91.47
2023-02-16T01:27:04.107Z,78.60
2023-02-16T01:29:32.096Z,88.57
2023-02-16T01:32:00.106Z,74.47
2023-02-16T01:34:28.088Z,87.38
2023-02-16T01:36:59.075Z,81.57
2023-02-16T01:39:26.977Z,81.88
2023-02-16T01:42:12.774Z,80.35
2023-02-16T01:44:54.300Z,76.30
2023-02-16T01:47:56.823Z,81.47
2023-02-16T01:50:26.281Z,75.50
2023-02-16T01:52:57.686Z,74.10
2023-02-16T01:55:30.754Z,72.28
2023-02-16T01:58:15.826Z,80.82
2023-02-16T02:00:52.801Z,84.55
2023-02-16T02:03:40.901Z,71.53
2023-02-16T02:06:13.319Z,80.15
2023-02-16T02:08:44.088Z,80.57
2023-02-16T02:11:18.453Z,72.45
2023-02-16T02:14:16.582Z,79.13
2023-02-16T02:16:58.533Z,69.45
2023-02-16T02:19:28.608Z,74.53
2023-02-16T02:22:34.159Z,70.63
2023-02-16T02:25:06.311Z,72.53
2023-02-16T02:27:36.635Z,75.60
2023-02-16T02:30:18.047Z,78.75
2023-02-16T02:32:50.176Z,75.93
2023-02-16T02:35:35.103Z,78.32
2023-02-16T02:38:11.102Z,79.82
2023-02-16T02:40:42.126Z,73.20
2023-02-16T02:43:10.260Z,73.97
2023-02-16T02:45:42.084Z,72.35
2023-02-16T02:48:10.236Z,71.55
2023-02-16T02:51:08.470Z,77.85
2023-02-16T02:53:42.956Z,82.50
2023-02-16T02:56:30.315Z,86.72
2023-02-16T02:59:20.913Z,82.78
2023-02-16T03:01:50.952Z,92.50
2023-02-16T03:04:22.381Z,81.75
2023-02-16T03:06:52.737Z,101.25
2023-02-16T03:09:20.907Z,83.40
2023-02-16T03:12:08.859Z,89.88
2023-02-16T03:14:43.476Z,85.28
2023-02-16T03:17:35.223Z,80.10
2023-02-16T03:20:24.057Z,87.88
2023-02-16T03:23:11.141Z,85.32
2023-02-16T03:25:58.359Z,90.05
2023-02-16T03:28:46.704Z,82.40
2023-02-16T03:31:22.817Z,87.70
2023-02-16T03:33:55.254Z,92.40
2023-02-16T03:36:24.490Z,86.53
2023-02-16T03:38:52.849Z,84.03
2023-02-16T03:41:20.904Z,77.10
2023-02-16T03:43:48.926Z,78.07
2023-02-16T03:46:16.929Z,84.88
2023-02-16T03:48:44.922Z,86.60
2023-02-16T03:51:12.715Z,80.75
2023-02-16T03:53:40.700Z,72.13
2023-02-16T03:56:08.899Z,75.72
2023-02-16T03:58:36.682Z,68.80
2023-02-16T04:01:04.892Z,70.85
2023-02-16T04:03:33.988Z,72.53
2023-02-16T04:06:02.483Z,75.03
2023-02-16T04:08:30.491Z,67.20
2023-02-16T04:10:58.512Z,68.03
2023-02-16T04:13:26.289Z,75.85
2023-02-16T04:15:54.802Z,67.47
2023-02-16T04:18:22.628Z,73.22
2023-02-16T04:20:50.617Z,68.32
2023-02-16T04:23:18.400Z,71.82
2023-02-16T04:25:46.341Z,73.15
2023-02-16T04:28:14.222Z,79.60
2023-02-16T04:30:42.032Z,70.22
2023-02-16T04:33:10.135Z,72.47
2023-02-16T04:35:37.939Z,69.88
2023-02-16T04:38:05.985Z,68.35
2023-02-16T04:40:33.952Z,71.60
2023-02-16T04:43:02.007Z,70.90
2023-02-16T04:45:29.986Z,76.40
2023-02-16T04:47:57.899Z,79.40
2023-02-16T04:50:25.812Z,75.78
2023-02-16T04:52:53.833Z,70.78
2023-02-16T04:55:21.976Z,74.55
2023-02-16T04:57:50.379Z,73.88
2023-02-16T05:00:18.582Z,74.43
2023-02-16T05:02:46.533Z,72.70
2023-02-16T05:05:14.656Z,74.75
2023-02-16T05:07:42.548Z,75.35
2023-02-16T05:10:10.447Z,70.38
2023-02-16T05:12:57.026Z,87.60
2023-02-16T05:15:25.504Z,101.40
2023-02-16T05:18:02.610Z,74.75
2023-02-16T05:20:49.492Z,76.18
2023-02-16T05:23:17.433Z,68.28
2023-02-16T05:25:45.430Z,75.97
2023-02-16T05:28:13.510Z,78.90
2023-02-16T05:30:49.585Z,72.07
2023-02-16T05:33:20.161Z,77.57
2023-02-16T05:35:48.058Z,65.32
2023-02-16T05:38:15.907Z,65.07
2023-02-16T05:40:43.782Z,79.35
2023-02-16T05:43:11.586Z,72.57
2023-02-16T05:45:39.720Z,70.07
2023-02-16T05:48:07.615Z,63.20
2023-02-16T05:50:35.499Z,66.88
2023-02-16T05:53:03.586Z,67.97
2023-02-16T05:55:31.497Z,80.65
2023-02-16T05:57:59.554Z,80.20
2023-02-16T06:00:27.887Z,70.95
2023-02-16T06:02:55.742Z,69.00
2023-02-16T06:05:23.734Z,69.82
2023-02-16T06:07:51.680Z,94.40
2023-02-16T06:10:19.727Z,84.30
2023-02-16T06:12:47.731Z,68.82
2023-02-16T06:15:15.559Z,79.32
2023-02-16T06:17:44.883Z,71.53
2023-02-16T06:20:13.062Z,69.50
2023-02-16T06:22:41.000Z,76.45
2023-02-16T06:25:10.294Z,66.57
2023-02-16T06:27:38.105Z,74.60
2023-02-16T06:30:06.398Z,61.15
2023-02-16T06:32:34.324Z,106.80
2023-02-16T06:35:02.363Z,80.95
2023-02-16T06:37:30.204Z,75.00
2023-02-16T06:39:58.100Z,71.13
2023-02-16T06:42:25.970Z,97.75
2023-02-16T06:44:53.772Z,78.65
2023-02-16T06:47:22.765Z,65.47
2023-02-16T06:49:50.535Z,74.47
2023-02-16T06:52:18.772Z,74.78
2023-02-16T06:54:47.823Z,75.38
2023-02-16T06:57:15.752Z,67.38
2023-02-16T06:59:43.615Z,71.70
2023-02-16T07:02:11.968Z,75.80
2023-02-16T07:04:39.770Z,78.00
2023-02-16T07:07:07.772Z,78.55
2023-02-16T07:09:41.976Z,74.88
2023-02-16T07:12:09.766Z,69.10
2023-02-16T07:14:37.737Z,74.07
2023-02-16T07:17:06.155Z,77.25
2023-02-16T07:19:34.035Z,77.82
2023-02-16T07:22:02.506Z,84.00
2023-02-16T07:24:30.352Z,76.38
2023-02-16T07:26:58.861Z,83.05
2023-02-16T07:29:26.594Z,71.53
2023-02-16T07:31:56.724Z,71.30
2023-02-16T07:34:24.774Z,77.25
2023-02-16T07:36:52.765Z,70.00
2023-02-16T07:39:20.535Z,80.15
2023-02-16T07:41:48.554Z,77.93
2023-02-16T07:44:19.270Z,86.05
2023-02-16T07:46:47.110Z,77.28
2023-02-16T07:49:15.182Z,85.65
2023-02-16T07:51:43.132Z,87.97
2023-02-16T07:54:11.304Z,83.38
2023-02-16T07:56:39.095Z,78.40
2023-02-16T07:59:07.005Z,75.30
2023-02-16T08:01:35.384Z,78.50
2023-02-16T08:04:03.182Z,75.32
2023-02-16T08:06:31.092Z,82.40
2023-02-16T08:08:59.076Z,76.28
2023-02-16T08:11:27.296Z,74.47
2023-02-16T08:13:55.305Z,73.03
2023-02-16T08:16:24.443Z,70.85
2023-02-16T08:18:52.552Z,78.63
2023-02-16T08:21:22.076Z,107.32
2023-02-16T08:23:57.569Z,136.07
2023-02-16T08:26:26.405Z,136.18
2023-02-16T08:28:56.519Z,106.47
2023-02-16T08:31:25.627Z,96.13
2023-02-16T08:33:56.810Z,113.72
2023-02-16T08:36:26.517Z,92.85
2023-02-16T08:38:54.745Z,97.82
2023-02-16T08:41:24.025Z,110.82
2023-02-16T08:44:01.077Z,100.55
2023-02-16T08:46:29.927Z,101.15
2023-02-16T08:48:59.778Z,117.82
2023-02-16T08:51:28.994Z,128.27
2023-02-16T08:53:59.055Z,106.93
2023-02-16T08:56:26.986Z,85.28
2023-02-16T08:58:54.917Z,90.53
2023-02-16T09:01:23.900Z,85.95
2023-02-16T09:03:52.270Z,92.03
2023-02-16T09:06:21.584Z,85.88
2023-02-16T09:08:53.365Z,95.22
2023-02-16T09:11:21.578Z,91.60
2023-02-16T09:13:49.872Z,96.20
2023-02-16T09:16:19.107Z,126.57
2023-02-16T09:18:48.284Z,94.70
2023-02-16T09:21:17.208Z,88.30
2023-02-16T09:23:48.742Z,87.70
2023-02-16T09:26:20.366Z,90.72
2023-02-16T09:28:49.068Z,189.07
2023-02-16T09:31:26.430Z,239.52
2023-02-16T09:33:56.235Z,89.00
2023-02-16T09:36:24.456Z,99.57
2023-02-16T09:38:52.255Z,90.90
2023-02-16T09:41:26.846Z,92.72
2023-02-16T09:44:01.285Z,94.80
2023-02-16T09:46:30.309Z,94.70
2023-02-16T09:48:58.919Z,101.95
2023-02-16T09:51:34.712Z,100.35
2023-02-16T09:54:15.385Z,103.78
2023-02-16T09:56:48.084Z,103.90
2023-02-16T09:59:18.964Z,100.97
2023-02-16T10:02:01.792Z,96.68
2023-02-16T10:05:05.380Z,98.43
2023-02-16T10:07:39.538Z,106.03
2023-02-16T10:10:08.668Z,101.18
2023-02-16T10:12:43.675Z,96.68
2023-02-16T10:15:16.477Z,95.40
2023-02-16T10:17:49.836Z,101.75
2023-02-16T10:20:17.812Z,100.20
2023-02-16T10:22:52.627Z,102.70
2023-02-16T10:25:26.782Z,97.75
2023-02-16T10:28:02.535Z,102.43
2023-02-16T10:30:31.901Z,100.82
2023-02-16T10:33:04.042Z,102.07
2023-02-16T10:35:48.680Z,102.57
2023-02-16T10:38:32.217Z,100.57
2023-02-16T10:41:02.574Z,91.45
2023-02-16T10:43:34.397Z,97.95
2023-02-16T10:46:03.547Z,91.32
2023-02-16T10:48:31.665Z,98.35
2023-02-16T10:50:59.385Z,88.85
2023-02-16T10:53:46.049Z,94.97
2023-02-16T10:56:34.318Z,88.20
2023-02-16T10:59:05.513Z,90.20
2023-02-16T11:01:38.773Z,92.28
2023-02-16T11:06:36.606Z,92.72
2023-02-16T11:09:06.596Z,144.93
2023-02-16T11:11:39.588Z,94.95
2023-02-16T11:14:22.670Z,98.15
2023-02-16T11:17:02.892Z,100.50
2023-02-16T11:19:33.447Z,100.18
2023-02-16T11:22:11.650Z,85.32
2023-02-16T11:24:42.369Z,94.28
2023-02-16T11:27:15.372Z,89.13
2023-02-16T11:29:43.354Z,90.55
2023-02-16T11:32:12.268Z,90.55
2023-02-16T11:34:43.263Z,90.82
2023-02-16T11:37:28.445Z,89.82
2023-02-16T11:40:13.912Z,88.85
2023-02-16T11:42:47.236Z,82.95
2023-02-16T11:45:35.340Z,88.10
2023-02-16T11:48:14.096Z,88.18
2023-02-16T11:50:56.851Z,79.45
2023-02-16T11:53:26.777Z,86.90
2023-02-16T11:56:10.831Z,96.50
2023-02-16T11:58:39.143Z,92.25
2023-02-16T12:01:28.205Z,82.32
2023-02-16T12:04:14.697Z,95.22
2023-02-16T12:06:49.943Z,88.65
2023-02-16T12:09:20.774Z,90.03
2023-02-16T12:12:06.260Z,97.25
2023-02-16T12:14:57.181Z,93.93
2023-02-16T12:17:25.815Z,84.43
2023-02-16T12:20:03.708Z,96.32
2023-02-16T12:22:33.297Z,107.18
2023-02-16T12:25:04.167Z,105.82
2023-02-16T12:27:35.045Z,93.00
2023-02-16T12:30:18.546Z,94.72
2023-02-16T12:33:09.278Z,93.03
2023-02-16T12:35:49.442Z,94.75
2023-02-16T12:38:27.076Z,96.75
2023-02-16T12:40:54.829Z,115.03
2023-02-16T12:43:42.926Z,98.18
2023-02-16T12:46:36.757Z,97.82
2023-02-16T12:58:39.989Z,94.72
2023-02-16T13:01:18.946Z,91.38
2023-02-16T13:04:10.456Z,102.65
2023-02-16T13:10:44.123Z,99.30
2023-02-16T13:13:27.751Z,104.35
2023-02-16T13:19:22.330Z,99.50
2023-02-16T13:22:27.893Z,107.05
2023-02-16T13:25:09.469Z,104.93
2023-02-16T13:28:09.121Z,106.53
2023-02-16T13:38:16.634Z,105.25
2023-02-16T13:44:47.540Z,115.10
2023-02-16T13:57:21.908Z,113.93
2023-02-16T14:00:11.783Z,115.32
2023-02-16T14:03:46.431Z,124.68
2023-02-16T14:09:45.863Z,118.13
2023-02-16T14:13:10.314Z,115.30
2023-02-16T14:20:07.398Z,124.60
2023-02-16T14:23:04.960Z,122.20
2023-02-16T14:25:43.921Z,124.85
2023-02-16T14:28:56.990Z,126.70
2023-02-16T14:31:38.917Z,139.05
2023-02-16T14:34:22.256Z,134.30
2023-02-16T14:44:04.635Z,146.73
2023-02-16T14:46:59.996Z,142.52
2023-02-16T14:50:03.083Z,143.38
2023-02-16T14:52:54.911Z,142.38
2023-02-16T14:55:29.495Z,140.93
2023-02-16T14:58:25.227Z,148.95
2023-02-16T15:01:07.186Z,141.45
2023-02-16T15:03:53.819Z,143.23
2023-02-16T15:06:41.347Z,147.57
2023-02-16T15:09:35.517Z,139.35
2023-02-16T15:16:02.468Z,142.55
2023-02-16T15:19:09.319Z,145.68
2023-02-16T15:21:44.246Z,147.32
2023-02-16T15:24:36.656Z,156.18
2023-02-16T15:30:25.489Z,144.70
2023-02-16T15:33:23.411Z,156.07
2023-02-16T15:36:15.235Z,156.27
2023-02-16T15:39:12.252Z,149.23
2023-02-16T15:42:29.243Z,153.68
2023-02-16T15:45:03.116Z,152.13
2023-02-16T15:47:46.081Z,152.00
2023-02-16T15:50:41.054Z,160.98
2023-02-16T15:53:34.961Z,175.18
2023-02-16T15:56:28.996Z,156.27
2023-02-16T15:59:07.929Z,163.85
2023-02-16T16:01:43.287Z,158.30
2023-02-16T16:04:22.546Z,164.65
2023-02-16T16:06:51.504Z,161.57
2023-02-16T16:09:37.629Z,165.35
2023-02-16T16:12:06.893Z,159.88
2023-02-16T16:14:37.276Z,170.77
2023-02-16T16:17:05.969Z,183.43
2023-02-16T16:19:35.185Z,181.18
2023-02-16T16:22:04.423Z,164.52
2023-02-16T16:24:39.085Z,164.18
2023-02-16T16:27:11.750Z,192.13
2023-02-16T16:29:41.655Z,177.20
2023-02-16T16:32:31.792Z,175.85
2023-02-16T16:34:59.985Z,182.95
2023-02-16T16:37:33.942Z,192.32
2023-02-16T16:40:01.937Z,198.60
2023-02-16T16:42:29.856Z,296.50
2023-02-16T16:45:02.304Z,228.40
2023-02-16T16:47:33.608Z,204.52
2023-02-16T16:50:01.460Z,187.95
2023-02-16T16:52:40.233Z,186.88
2023-02-16T16:55:34.451Z,187.90
2023-02-16T16:58:04.694Z,189.55
2023-02-16T17:00:37.036Z,190.95
2023-02-16T17:03:06.141Z,204.90
2023-02-16T17:05:34.641Z,228.60
2023-02-16T17:08:02.500Z,297.10
2023-02-16T17:10:30.624Z,227.95
2023-02-16T17:12:59.652Z,185.18
2023-02-16T17:15:46.400Z,205.00
2023-02-16T17:18:18.881Z,209.43
2023-02-16T17:20:47.392Z,210.50
2023-02-16T17:23:16.108Z,217.18
2023-02-16T17:25:44.177Z,201.25
2023-02-16T17:28:12.676Z,193.60
2023-02-16T17:30:40.943Z,194.43
2023-02-16T17:33:09.769Z,203.20
2023-02-16T17:35:39.155Z,210.88
2023-02-16T17:38:08.294Z,197.80
2023-02-16T17:40:36.552Z,203.05
2023-02-16T17:43:10.891Z,196.20
2023-02-16T17:45:38.827Z,201.88
2023-02-16T17:48:06.817Z,200.60
2023-02-16T17:50:34.860Z,195.32
2023-02-16T17:53:02.799Z,202.23
2023-02-16T17:55:30.945Z,203.13
2023-02-16T17:57:58.808Z,189.43
2023-02-16T18:00:26.652Z,200.00
2023-02-16T18:02:54.512Z,197.75
2023-02-16T18:05:22.383Z,201.32
2023-02-16T18:07:50.337Z,213.40
2023-02-16T18:10:21.640Z,214.73
2023-02-16T18:12:49.449Z,203.95
2023-02-16T18:15:17.544Z,214.75
2023-02-16T18:17:45.336Z,209.93
2023-02-16T18:20:17.728Z,217.02
2023-02-16T18:22:45.675Z,216.33
2023-02-16T18:25:13.695Z,206.90
2023-02-16T18:27:41.556Z,213.50
2023-02-16T18:30:10.271Z,207.75
2023-02-16T18:32:38.376Z,196.45
2023-02-16T18:35:07.042Z,205.55
2023-02-16T18:37:38.619Z,195.32
2023-02-16T18:40:08.622Z,201.38
2023-02-16T18:42:36.864Z,204.98
2023-02-16T18:45:06.697Z,204.10
2023-02-16T18:47:36.250Z,207.73
2023-02-16T18:50:08.147Z,211.60
2023-02-16T18:52:39.573Z,202.25
2023-02-16T18:55:08.521Z,202.57
2023-02-16T18:57:36.715Z,203.13
2023-02-16T19:00:09.000Z,219.60
2023-02-16T19:02:38.349Z,217.32
2023-02-16T19:05:10.027Z,206.77
2023-02-16T19:07:38.253Z,196.23
2023-02-16T19:10:08.441Z,212.70
2023-02-16T19:12:44.850Z,203.95
2023-02-16T19:15:17.693Z,204.13
2023-02-16T19:17:47.596Z,210.82
2023-02-16T19:20:18.817Z,221.80
2023-02-16T19:22:47.613Z,217.25
2023-02-16T19:25:15.957Z,210.93
2023-02-16T19:27:44.723Z,215.73
2023-02-16T19:30:13.184Z,203.60
2023-02-16T19:32:41.312Z,204.52
2023-02-16T19:35:09.964Z,199.30
2023-02-16T19:37:37.828Z,214.38
2023-02-16T19:40:10.019Z,204.00
2023-02-16T19:42:38.269Z,206.13
2023-02-16T19:45:06.593Z,208.82
2023-02-16T19:47:34.900Z,209.63
2023-02-16T19:50:02.853Z,201.77
2023-02-16T19:52:30.973Z,230.25
2023-02-16T19:54:59.169Z,218.82
2023-02-16T19:57:27.084Z,216.20
2023-02-16T19:59:54.887Z,210.40
2023-02-16T20:02:22.982Z,230.45
2023-02-16T20:04:50.992Z,206.43
2023-02-16T20:07:19.132Z,279.60
2023-02-16T20:09:46.978Z,240.25
2023-02-16T20:12:15.648Z,223.70
2023-02-16T20:14:43.785Z,222.82
2023-02-16T20:17:11.902Z,251.65
2023-02-16T20:19:40.129Z,216.35
2023-02-16T20:22:08.071Z,201.52
2023-02-16T20:24:36.614Z,200.07
2023-02-16T20:27:04.637Z,202.07
2023-02-16T20:29:32.868Z,206.77
2023-02-16T20:32:00.927Z,208.15
2023-02-16T20:34:29.143Z,205.82
2023-02-16T20:36:56.993Z,216.32
2023-02-16T20:39:25.021Z,211.10
2023-02-16T20:41:52.963Z,218.57
2023-02-16T20:44:23.086Z,212.40
2023-02-16T20:46:51.393Z,207.60
2023-02-16T20:49:22.252Z,214.93
2023-02-16T20:51:50.216Z,215.13
2023-02-16T20:54:18.204Z,213.18
2023-02-16T20:56:46.154Z,208.98
2023-02-16T20:59:14.162Z,213.40
2023-02-16T21:01:51.938Z,208.65
2023-02-16T21:04:20.710Z,213.48
2023-02-16T21:06:48.725Z,204.50
2023-02-16T21:09:17.329Z,204.18
2023-02-16T21:11:45.320Z,206.65
2023-02-16T21:14:13.542Z,214.32
2023-02-16T21:16:41.531Z,208.43
2023-02-16T21:19:21.260Z,246.50
2023-02-16T21:21:50.457Z,221.85
2023-02-16T21:24:18.291Z,220.25
2023-02-16T21:26:46.340Z,212.82
2023-02-16T21:29:15.600Z,224.00
2023-02-16T21:31:44.049Z,207.68
2023-02-16T21:34:12.061Z,225.13
2023-02-16T21:36:40.425Z,222.48
2023-02-16T21:39:08.456Z,204.60
2023-02-16T21:41:39.199Z,219.50
2023-02-16T21:44:08.648Z,215.00
2023-02-16T21:46:46.998Z,206.00
2023-02-16T21:49:16.529Z,209.23
2023-02-16T21:51:45.281Z,212.05
2023-02-16T21:54:16.971Z,206.10
2023-02-16T21:56:53.023Z,222.15
2023-02-16T21:59:24.687Z,203.50
2023-02-16T22:01:52.563Z,190.82
2023-02-16T22:04:22.301Z,296.40
2023-02-16T22:06:51.140Z,206.32
2023-02-16T22:09:20.948Z,205.32
2023-02-16T22:11:50.022Z,194.98
2023-02-16T22:14:18.310Z,246.45
2023-02-16T22:16:51.905Z,200.32
2023-02-16T22:19:23.035Z,198.93
2023-02-16T22:21:51.626Z,192.73
2023-02-16T22:24:20.333Z,188.02
2023-02-16T22:26:49.021Z,200.30
2023-02-16T22:29:17.136Z,203.55
2023-02-16T22:31:49.062Z,194.77
2023-02-16T22:34:18.313Z,204.45
2023-02-16T22:36:46.363Z,190.90
2023-02-16T22:39:14.949Z,186.68
2023-02-16T22:41:42.986Z,196.38
2023-02-16T22:44:11.689Z,188.45
2023-02-16T22:46:39.591Z,177.05
2023-02-16T22:49:07.621Z,192.88
2023-02-16T22:51:35.433Z,199.40
2023-02-16T22:54:03.301Z,190.25
2023-02-16T22:56:31.945Z,188.15
2023-02-16T22:59:00.800Z,192.07
2023-02-16T23:01:29.669Z,180.98
2023-02-16T23:03:58.275Z,188.27
2023-02-16T23:06:31.300Z,191.85
2023-02-16T23:09:03.628Z,189.40
2023-02-16T23:11:31.771Z,183.50
2023-02-16T23:13:59.717Z,189.95
2023-02-16T23:16:28.237Z,193.88
2023-02-16T23:19:07.850Z,198.70
2023-02-16T23:21:35.842Z,192.35
2023-02-16T23:24:03.830Z,195.07
2023-02-16T23:26:32.145Z,187.25
2023-02-16T23:29:02.050Z,186.35
2023-02-16T23:31:34.504Z,181.82
2023-02-16T23:34:02.897Z,182.63
2023-02-16T23:36:31.900Z,186.40
2023-02-16T23:39:00.857Z,192.75
2023-02-16T23:41:28.818Z,185.50
2023-02-16T23:43:56.689Z,182.25
2023-02-16T23:46:24.714Z,184.70
2023-02-16T23:48:52.796Z,191.20
2023-02-16T23:51:20.578Z,175.32
2023-02-16T23:53:48.628Z,189.25
2023-02-16T23:56:17.816Z,189.07
2023-02-16T23:58:46.222Z,179.60
